Time;durP1;ratioP1;P1;durP2;ratioP2;P2;SDS_P1;SDS_P2;PMS_P1;PMS_P2;Temp;Humidity;BMP_temperature;BMP_pressure;BME280_temperature;BME280_humidity;BME280_pressure;Samples;Min_cycle;Max_cycle;Signal;HPM_P1;HPM_P2
2022/06/24 00:11:12;;;;;;;14.00;8.07;;;;;;;18.95;89.38;100533.52;740539;1154;115455;-69
2022/06/24 00:26:14;;;;;;;13.85;8.80;;;;;;;18.71;89.86;100534.59;740580;1153;116000;-70
2022/06/24 00:41:23;;;;;;;9.20;7.75;;;;;;;18.49;91.10;100537.15;741106;1155;114416;-70
2022/06/24 00:56:27;;;;;;;12.60;8.45;;;;;;;18.41;92.17;100516.80;740799;1155;114481;-72
2022/06/24 01:11:34;;;;;;;13.45;8.20;;;;;;;18.17;93.11;100512.53;740893;1155;114942;-70
2022/06/24 01:26:38;;;;;;;13.65;9.30;;;;;;;18.01;93.38;100513.50;740940;1153;115575;-71
2022/06/24 01:41:45;;;;;;;20.33;10.48;;;;;;;17.60;94.55;100532.34;740284;1153;115379;-71
2022/06/24 01:56:47;;;;;;;31.55;14.88;;;;;;;17.54;95.69;100525.92;740366;1155;115261;-70
2022/06/24 02:27:10;;;;;;;17.15;10.90;;;;;;;17.56;95.62;100521.25;740104;1153;115415;-71
2022/06/24 02:42:13;;;;;;;16.67;10.33;;;;;;;17.51;95.99;100534.20;740378;1153;115173;-71
2022/06/24 02:57:15;;;;;;;20.28;11.30;;;;;;;17.53;95.75;100544.66;740030;1155;115833;-71
2022/06/24 03:12:17;;;;;;;20.98;11.38;;;;;;;17.59;95.74;100538.64;740872;1153;115655;-71
2022/06/24 03:27:20;;;;;;;16.93;11.50;;;;;;;17.75;96.12;100540.36;740333;1154;115818;-71
2022/06/24 03:42:22;;;;;;;17.43;11.55;;;;;;;18.05;96.09;100549.30;740583;1155;115366;-71
2022/06/24 03:57:24;;;;;;;20.85;10.55;;;;;;;18.42;96.37;100560.95;740651;1153;115183;-70
2022/06/24 04:12:27;;;;;;;14.13;9.48;;;;;;;19.01;95.84;100567.34;740544;1155;115225;-75
2022/06/24 04:27:49;;;;;;;11.30;6.95;;;;;;;19.70;93.41;100566.11;741666;1155;115660;-74
2022/06/24 04:42:51;;;;;;;10.50;6.38;;;;;;;20.41;91.20;100577.86;742465;1153;115399;-72
2022/06/24 04:57:57;;;;;;;5.53;4.70;;;;;;;21.05;89.22;100574.22;742325;1155;115682;-71
2022/06/24 05:12:59;;;;;;;9.50;4.80;;;;;;;21.50;86.53;100567.61;741106;1155;115242;-71
2022/06/24 05:28:02;;;;;;;7.80;4.63;;;;;;;22.03;84.56;100558.94;741211;1153;115523;-72
2022/06/24 05:43:04;;;;;;;5.13;3.98;;;;;;;22.64;82.02;100570.45;741996;1155;115047;-71
2022/06/24 05:58:06;;;;;;;5.88;3.80;;;;;;;23.06;79.54;100574.45;743298;1155;114530;-70
2022/06/24 06:13:12;;;;;;;5.10;3.90;;;;;;;23.50;78.50;100576.58;739958;1155;114562;-71
2022/06/24 06:28:15;;;;;;;6.35;4.08;;;;;;;23.98;76.51;100581.47;740033;1155;114777;-70
2022/06/24 06:43:17;;;;;;;3.60;3.05;;;;;;;24.81;75.07;100557.25;740374;1154;114058;-80
2022/06/24 06:58:21;;;;;;;6.93;2.88;;;;;;;25.21;72.55;100549.55;740271;1153;114119;-74
2022/06/24 07:13:24;;;;;;;4.63;2.38;;;;;;;25.57;70.25;100555.09;740911;1155;114265;-74
2022/06/24 07:28:26;;;;;;;4.03;2.20;;;;;;;26.12;68.50;100555.94;740178;1155;115511;-73
2022/06/24 07:43:29;;;;;;;2.30;1.87;;;;;;;26.72;64.75;100552.23;741468;1155;114076;-74
2022/06/24 07:58:32;;;;;;;2.43;1.60;;;;;;;27.52;62.13;100542.53;742159;1155;114963;-74
2022/06/24 08:13:34;;;;;;;3.30;1.70;;;;;;;27.99;57.78;100538.75;740480;1155;115488;-76
2022/06/24 08:28:37;;;;;;;1.83;1.53;;;;;;;28.87;58.31;100518.42;740998;1155;115031;-73
2022/06/24 08:43:40;;;;;;;2.90;1.63;;;;;;;28.85;56.44;100505.19;740104;1155;114080;-73
2022/06/24 08:58:42;;;;;;;2.10;1.53;;;;;;;28.90;55.50;100501.71;740185;1155;115485;-73
2022/06/24 09:13:49;;;;;;;1.85;1.65;;;;;;;29.76;55.69;100496.63;739999;1155;115543;-74
2022/06/24 09:28:56;;;;;;;3.50;1.80;;;;;;;30.11;54.80;100474.46;740293;1155;115758;-73
2022/06/24 09:44:01;;;;;;;1.85;1.65;;;;;;;30.36;53.71;100473.78;739937;1153;115803;-73
2022/06/24 10:14:28;;;;;;;2.28;1.45;;;;;;;31.03;52.19;100438.84;741410;1153;115587;-73
2022/06/24 10:29:32;;;;;;;3.23;1.50;;;;;;;31.22;51.70;100419.39;740220;1153;115515;-74
2022/06/24 10:44:38;;;;;;;3.67;1.90;;;;;;;31.76;51.61;100412.60;740354;1153;115671;-71
2022/06/24 10:59:41;;;;;;;4.53;1.83;;;;;;;31.12;49.23;100409.38;740401;1155;115267;-72
2022/06/24 11:14:43;;;;;;;4.28;1.70;;;;;;;32.10;50.21;100392.19;740341;1153;114270;-78
2022/06/24 11:29:54;;;;;;;2.05;1.30;;;;;;;32.11;50.58;100385.64;740429;1155;115578;-72
2022/06/24 11:44:57;;;;;;;2.50;1.80;;;;;;;32.52;49.47;100372.73;741562;1154;114804;-85
2022/06/24 12:00:00;;;;;;;1.30;1.13;;;;;;;32.47;49.86;100359.19;740627;1153;114166;-69
2022/06/24 12:15:03;;;;;;;2.38;1.75;;;;;;;32.85;49.56;100342.42;741744;1154;115491;-70
2022/06/24 12:30:08;;;;;;;1.78;1.53;;;;;;;33.37;49.45;100317.54;740813;1154;114763;-72
2022/06/24 12:45:23;;;;;;;1.53;1.43;;;;;;;33.61;49.42;100312.90;740472;1153;114778;-72
2022/06/24 13:00:26;;;;;;;3.23;1.60;;;;;;;32.78;48.09;100298.47;740817;1153;113979;-71
2022/06/24 13:15:29;;;;;;;3.73;1.50;;;;;;;32.99;48.69;100283.63;741028;1155;115496;-70
2022/06/24 13:30:32;;;;;;;3.90;2.93;;;;;;;33.15;49.59;100283.47;741270;1155;114229;-70
2022/06/24 13:45:35;;;;;;;6.15;3.70;;;;;;;33.03;49.35;100275.70;740065;1155;115514;-76
2022/06/24 14:00:39;;;;;;;5.47;2.50;;;;;;;32.57;48.72;100262.49;740400;1154;114909;-76
2022/06/24 14:15:42;;;;;;;2.80;2.10;;;;;;;32.98;49.35;100243.98;740060;1154;114387;-76
2022/06/24 14:30:45;;;;;;;1.70;1.60;;;;;;;32.78;49.29;100238.73;740701;1154;114498;-77
2022/06/24 14:45:49;;;;;;;4.30;1.68;;;;;;;32.39;49.38;100228.69;740870;1153;114169;-81
2022/06/24 15:00:52;;;;;;;2.40;2.03;;;;;;;32.41;50.23;100221.09;742991;1155;114213;-78
2022/06/24 15:15:55;;;;;;;1.83;1.58;;;;;;;32.41;49.86;100208.32;740295;1155;115150;-78
2022/06/24 15:30:58;;;;;;;2.47;2.00;;;;;;;31.76;49.70;100186.77;741133;1153;115525;-77
2022/06/24 15:46:04;;;;;;;5.23;2.73;;;;;;;31.68;49.95;100188.96;740216;1154;115461;-80
2022/06/24 16:01:06;;;;;;;1.90;1.70;;;;;;;31.50;50.42;100176.84;740816;1155;114016;-76
2022/06/24 16:16:10;;;;;;;2.60;1.78;;;;;;;31.11;51.74;100171.30;740444;1153;115135;-73
2022/06/24 16:31:19;;;;;;;4.43;1.85;;;;;;;31.02;52.23;100171.02;742870;1155;114562;-78
2022/06/24 16:46:22;;;;;;;2.30;1.48;;;;;;;30.62;52.85;100151.04;742469;1154;114371;-79
2022/06/24 17:01:25;;;;;;;3.10;2.00;;;;;;;30.53;53.63;100153.50;743214;1153;114732;-78
2022/06/24 17:16:28;;;;;;;2.18;1.63;;;;;;;30.09;53.81;100152.12;740988;1154;115327;-78
2022/06/24 17:31:30;;;;;;;2.68;1.80;;;;;;;29.73;54.01;100140.39;741914;1155;114006;-77
2022/06/24 17:46:33;;;;;;;3.03;2.55;;;;;;;29.32;55.28;100139.16;741584;1153;114320;-67
2022/06/24 18:01:35;;;;;;;3.45;1.93;;;;;;;29.15;55.92;100135.83;740543;1155;114163;-76
2022/06/24 18:16:38;;;;;;;3.50;2.00;;;;;;;28.80;55.57;100135.38;740804;1155;114264;-73
2022/06/24 18:31:41;;;;;;;3.25;2.08;;;;;;;28.34;56.73;100127.73;740900;1153;114883;-73
2022/06/24 18:46:44;;;;;;;5.00;1.80;;;;;;;27.75;57.06;100146.55;740996;1155;115721;-72
2022/06/24 19:01:46;;;;;;;2.48;1.98;;;;;;;27.14;58.56;100152.80;741258;1155;115429;-72
2022/06/24 19:16:49;;;;;;;2.60;1.87;;;;;;;26.61;58.83;100155.77;740890;1155;114602;-72
2022/06/24 19:31:52;;;;;;;4.58;1.95;;;;;;;26.22;60.52;100161.87;741057;1153;114912;-72
2022/06/24 19:46:55;;;;;;;4.73;2.20;;;;;;;25.78;61.24;100160.75;741015;1153;114965;-73
2022/06/24 20:17:19;;;;;;;3.48;2.18;;;;;;;24.97;63.03;100159.59;741166;1155;114912;-72
2022/06/24 20:32:21;;;;;;;3.05;2.13;;;;;;;24.59;63.82;100163.50;742359;1153;115292;-72
2022/06/24 20:47:24;;;;;;;3.33;2.35;;;;;;;24.07;64.98;100194.36;741773;1153;115262;-72
2022/06/24 21:02:27;;;;;;;7.25;4.00;;;;;;;23.76;65.37;100198.02;742579;1154;115566;-72
2022/06/24 21:17:29;;;;;;;4.45;3.00;;;;;;;23.47;66.31;100183.53;740955;1155;115056;-71
2022/06/24 21:32:32;;;;;;;4.85;2.50;;;;;;;23.39;65.99;100187.32;741485;1155;114840;-72
2022/06/24 21:47:34;;;;;;;5.20;2.98;;;;;;;23.19;66.46;100187.53;741696;1155;116316;-73
2022/06/24 22:02:38;;;;;;;3.30;2.65;;;;;;;22.62;68.14;100177.70;741138;1153;115167;-72
2022/06/24 22:17:54;;;;;;;6.75;3.20;;;;;;;22.09;69.12;100187.67;744580;1153;115918;-71
2022/06/24 22:32:57;;;;;;;5.55;3.13;;;;;;;21.85;69.85;100180.38;739985;1155;115583;-72
2022/06/24 22:47:59;;;;;;;4.53;3.38;;;;;;;21.65;71.01;100183.95;740978;1155;115648;-72
2022/06/24 23:03:02;;;;;;;4.05;3.20;;;;;;;21.70;71.20;100184.14;740453;1155;115646;-73
2022/06/24 23:18:05;;;;;;;3.58;3.05;;;;;;;21.67;71.75;100191.73;740870;1155;115694;-73
2022/06/24 23:33:07;;;;;;;6.00;2.93;;;;;;;21.43;73.12;100216.22;740842;1153;114636;-73
